Terminal Aerodrome Forecast
Issued by NWS

Home | Current Version | Previous Version | Text Only | Print | Product List | Glossary On
Versions: 1 2 3 4 5 6 7 8 9 10 11 12 13 14 15 16 17 18 19 20 21 22 23 24 25 26 27 28 29 30
000
FTUS41 KPBZ 241729
TAFHLG
TAF
KHLG 241729Z 2418/2518 20010KT P6SM VCSH SCT035 OVC100
     FM242300 21010KT 6SM -SHRA VCTS BKN050CB
      TEMPO 2423/2502 22015G30KT 2SM TSRA BKN025CB
     FM250200 22010KT 6SM -SHRA OVC015
     FM250600 24009KT P6SM OVC010
     FM251300 25011KT P6SM SCT015 BKN035=

USA.gov is the U.S. government's official web portal to all federal, state and local government web resources and services.